Time;durP1;ratioP1;P1;durP2;ratioP2;P2;SDS_P1;SDS_P2;PMS_P1;PMS_P2;Temp;Humidity;BMP_temperature;BMP_pressure;BME280_temperature;BME280_humidity;BME280_pressure;Samples;Min_cycle;Max_cycle;Signal;HPM_P1;HPM_P2
2024/04/09 00:01:53;;;;;;;;;;;;;;;5.04;100.00;99967.25;5422677;26;19936;-85
2024/04/09 00:04:19;;;;;;;;;;;;;;;5.16;100.00;99971.31;5392628;26;20353;-85
2024/04/09 00:06:45;;;;;;;;;;;;;;;5.16;100.00;99976.66;5452288;26;19997;-85
2024/04/09 00:09:11;;;;;;;;;;;;;;;5.17;100.00;99977.47;5392742;26;19929;-85
2024/04/09 00:11:37;;;;;;;;;;;;;;;5.17;100.00;99986.28;5392846;26;20317;-85
2024/04/09 00:14:04;;;;;;;;;;;;;;;5.16;100.00;99991.78;5452306;26;19936;-85
2024/04/09 00:16:33;;;;;;;;;;;;;;;5.16;100.00;99999.75;5422611;26;19936;-86
2024/04/09 00:18:58;;;;;;;;;;;;;;;5.14;100.00;99997.28;5422967;26;19940;-84
2024/04/09 00:21:24;;;;;;;;;;;;;;;5.13;100.00;100002.75;5422178;26;19936;-85
2024/04/09 00:23:50;;;;;;;;;;;;;;;5.16;100.00;100002.44;5392467;26;19997;-86
2024/04/09 00:26:16;;;;;;;;;;;;;;;5.08;100.00;100003.25;5452324;26;19997;-85
2024/04/09 00:28:42;;;;;;;;;;;;;;;5.02;100.00;99999.38;5392767;26;19935;-86
2024/04/09 00:31:08;;;;;;;;;;;;;;;5.06;100.00;100011.41;5421915;26;19929;-85
2024/04/09 00:33:33;;;;;;;;;;;;;;;5.07;100.00;100013.06;5451675;26;19928;-86
2024/04/09 00:35:59;;;;;;;;;;;;;;;5.16;100.00;100013.94;5392477;26;19940;-87
2024/04/09 00:38:27;;;;;;;;;;;;;;;5.18;100.00;100024.44;5392099;26;20274;-86
2024/04/09 00:40:52;;;;;;;;;;;;;;;5.17;100.00;100028.94;5452088;26;19935;-86
2024/04/09 00:43:18;;;;;;;;;;;;;;;5.19;100.00;100016.28;5392134;26;19928;-86
2024/04/09 00:45:43;;;;;;;;;;;;;;;5.18;100.00;100027.94;5392048;26;19929;-86
2024/04/09 00:48:09;;;;;;;;;;;;;;;5.22;100.00;100036.47;5421688;26;20001;-85
2024/04/09 00:50:35;;;;;;;;;;;;;;;5.17;100.00;100038.75;5451604;26;19936;-85
2024/04/09 00:53:00;;;;;;;;;;;;;;;5.13;100.00;100051.56;5451630;26;19936;-85
2024/04/09 00:55:26;;;;;;;;;;;;;;;5.15;100.00;100041.56;5421791;26;19929;-86
2024/04/09 00:57:52;;;;;;;;;;;;;;;5.20;100.00;100057.94;5452115;26;19940;-86
2024/04/09 01:00:19;;;;;;;;;;;;;;;5.17;100.00;100060.91;5453253;26;19928;-86
2024/04/09 01:02:48;;;;;;;;;;;;;;;5.13;100.00;100061.38;5425286;26;19940;-87
2024/04/09 01:05:14;;;;;;;;;;;;;;;5.13;100.00;100064.03;5396230;26;19929;-86
2024/04/09 01:07:39;;;;;;;;;;;;;;;5.21;100.00;100070.28;5395333;26;20255;-86
2024/04/09 01:10:05;;;;;;;;;;;;;;;5.23;100.00;100064.78;5425016;26;19928;-85
2024/04/09 01:12:31;;;;;;;;;;;;;;;5.28;100.00;100078.47;5395078;26;20355;-86
2024/04/09 01:14:56;;;;;;;;;;;;;;;5.28;100.00;100092.63;5424838;26;20263;-86
2024/04/09 01:17:24;;;;;;;;;;;;;;;5.24;100.00;100095.78;5425231;26;19935;-85
2024/04/09 01:19:49;;;;;;;;;;;;;;;5.21;100.00;100091.59;5395514;26;19977;-86
2024/04/09 01:22:15;;;;;;;;;;;;;;;5.13;100.00;100096.84;5395104;26;19940;-85
2024/04/09 01:24:41;;;;;;;;;;;;;;;5.06;100.00;100096.66;5395029;26;19997;-86
2024/04/09 01:27:12;;;;;;;;;;;;;;;5.02;100.00;100103.28;5455126;26;19929;-86
2024/04/09 01:29:38;;;;;;;;;;;;;;;4.97;100.00;100105.56;5396628;26;19928;-86
2024/04/09 01:32:06;;;;;;;;;;;;;;;5.07;100.00;100119.63;5425095;26;20263;-86
2024/04/09 01:34:32;;;;;;;;;;;;;;;5.09;100.00;100113.34;5425146;26;19935;-85
2024/04/09 01:37:00;;;;;;;;;;;;;;;5.12;100.00;100132.50;5424583;26;19929;-86
2024/04/09 01:39:27;;;;;;;;;;;;;;;5.11;100.00;100122.84;5454471;26;19935;-87
2024/04/09 01:41:53;;;;;;;;;;;;;;;5.10;100.00;100130.97;5425302;26;19956;-86
2024/04/09 01:44:18;;;;;;;;;;;;;;;5.21;100.00;100128.06;5424393;26;19936;-85
2024/04/09 01:46:44;;;;;;;;;;;;;;;5.19;100.00;100130.06;5424431;26;20348;-86
2024/04/09 01:49:09;;;;;;;;;;;;;;;5.12;100.00;100126.34;5424660;26;19943;-85
2024/04/09 01:51:35;;;;;;;;;;;;;;;5.26;100.00;100141.75;5454263;26;20350;-85
2024/04/09 01:54:00;;;;;;;;;;;;;;;5.34;100.00;100154.31;5424430;26;19929;-86
2024/04/09 01:56:26;;;;;;;;;;;;;;;5.38;100.00;100153.84;5454593;26;19928;-86
2024/04/09 01:58:51;;;;;;;;;;;;;;;5.26;100.00;100163.06;5424257;26;19996;-86
2024/04/09 02:01:18;;;;;;;;;;;;;;;5.20;100.00;100163.72;5424194;26;19940;-88
2024/04/09 02:03:49;;;;;;;;;;;;;;;5.27;100.00;100165.59;5424494;26;19934;-86
2024/04/09 02:06:16;;;;;;;;;;;;;;;5.25;100.00;100174.75;5426056;26;20355;-85
2024/04/09 02:08:42;;;;;;;;;;;;;;;5.23;100.00;100179.38;5424313;26;19928;-86
2024/04/09 02:11:12;;;;;;;;;;;;;;;5.22;100.00;100175.06;5423656;26;19935;-87
2024/04/09 02:13:41;;;;;;;;;;;;;;;5.17;100.00;100180.84;5425206;26;19957;-86
2024/04/09 02:16:09;;;;;;;;;;;;;;;5.13;100.00;100186.63;5424042;26;19997;-86
2024/04/09 02:18:36;;;;;;;;;;;;;;;5.05;100.00;100187.41;5424718;26;20324;-86
2024/04/09 02:21:02;;;;;;;;;;;;;;;4.98;100.00;100192.53;5424212;26;19973;-86
2024/04/09 02:23:27;;;;;;;;;;;;;;;4.90;100.00;100195.13;5424284;26;20297;-87
2024/04/09 02:25:52;;;;;;;;;;;;;;;4.85;100.00;100203.56;5423895;26;20266;-86
2024/04/09 02:28:18;;;;;;;;;;;;;;;4.95;100.00;100205.28;5424061;26;19997;-86
2024/04/09 02:30:43;;;;;;;;;;;;;;;4.94;100.00;100212.47;5424059;26;19936;-86
2024/04/09 02:33:09;;;;;;;;;;;;;;;4.83;100.00;100210.88;5423723;26;19935;-86
2024/04/09 02:35:34;;;;;;;;;;;;;;;4.74;100.00;100217.13;5423805;26;19935;-86
2024/04/09 02:38:00;;;;;;;;;;;;;;;4.69;100.00;100219.38;5453625;26;19933;-86
2024/04/09 02:40:26;;;;;;;;;;;;;;;4.73;100.00;100218.09;5394101;26;20021;-85
2024/04/09 02:42:51;;;;;;;;;;;;;;;4.72;100.00;100223.56;5394027;26;19929;-86
2024/04/09 02:45:19;;;;;;;;;;;;;;;4.74;100.00;100232.25;5453567;26;19928;-87
2024/04/09 02:47:45;;;;;;;;;;;;;;;4.59;100.00;100223.94;5394432;26;19936;-86
2024/04/09 02:50:10;;;;;;;;;;;;;;;4.55;100.00;100234.06;5423853;26;19929;-86
2024/04/09 02:52:36;;;;;;;;;;;;;;;4.49;100.00;100231.97;5393895;26;19935;-85
2024/04/09 02:55:02;;;;;;;;;;;;;;;4.50;100.00;100238.13;5394187;26;19929;-86
2024/04/09 02:57:28;;;;;;;;;;;;;;;4.38;100.00;100249.00;5453814;26;19939;-85
2024/04/09 02:59:53;;;;;;;;;;;;;;;4.33;100.00;100253.09;5423494;26;19932;-85
2024/04/09 03:02:19;;;;;;;;;;;;;;;4.41;100.00;100250.53;5393701;26;19929;-86
2024/04/09 03:04:44;;;;;;;;;;;;;;;4.42;100.00;100270.84;5423716;26;19928;-86
2024/04/09 03:07:10;;;;;;;;;;;;;;;4.24;100.00;100265.47;5423272;26;19936;-86
2024/04/09 03:09:36;;;;;;;;;;;;;;;4.16;100.00;100266.19;5423416;26;19997;-86
2024/04/09 03:12:01;;;;;;;;;;;;;;;4.10;100.00;100273.91;5423273;26;20266;-86
2024/04/09 03:14:30;;;;;;;;;;;;;;;4.11;100.00;100278.25;5453907;26;19929;-86
2024/04/09 03:16:56;;;;;;;;;;;;;;;4.08;100.00;100284.72;5393538;26;19940;-86
2024/04/09 03:19:21;;;;;;;;;;;;;;;4.21;100.00;100280.88;5393473;26;20022;-86
2024/04/09 03:21:47;;;;;;;;;;;;;;;4.26;100.00;100282.13;5422411;26;19939;-86
2024/04/09 03:24:12;;;;;;;;;;;;;;;4.12;100.00;100280.75;5392949;26;19936;-86
2024/04/09 03:26:38;;;;;;;;;;;;;;;3.99;100.00;100280.25;5452981;26;20267;-86
2024/04/09 03:29:03;;;;;;;;;;;;;;;3.90;100.00;100287.28;5422877;26;19928;-86
2024/04/09 03:31:29;;;;;;;;;;;;;;;4.01;100.00;100282.78;5393160;26;19928;-85
2024/04/09 03:33:55;;;;;;;;;;;;;;;4.25;100.00;100295.56;5423155;26;19929;-86
2024/04/09 03:36:20;;;;;;;;;;;;;;;4.33;100.00;100293.84;5422923;26;20245;-86
2024/04/09 03:38:46;;;;;;;;;;;;;;;4.33;100.00;100293.84;5452994;26;19929;-87
2024/04/09 03:41:11;;;;;;;;;;;;;;;4.34;100.00;100295.53;5422741;26;19929;-86
2024/04/09 03:43:37;;;;;;;;;;;;;;;4.29;100.00;100294.31;5422818;26;19928;-86
2024/04/09 03:46:06;;;;;;;;;;;;;;;4.08;100.00;100297.19;5393126;26;19935;-86
2024/04/09 03:48:32;;;;;;;;;;;;;;;4.00;100.00;100310.38;5422613;26;19996;-85
2024/04/09 03:50:58;;;;;;;;;;;;;;;3.95;100.00;100308.97;5422662;26;20368;-86
2024/04/09 03:53:23;;;;;;;;;;;;;;;4.07;100.00;100304.31;5452718;26;19997;-87
2024/04/09 03:55:59;;;;;;;;;;;;;;;4.07;100.00;100308.78;5452556;26;20305;-87
2024/04/09 03:58:28;;;;;;;;;;;;;;;4.05;100.00;100321.41;5422585;26;19940;-86
2024/04/09 04:00:57;;;;;;;;;;;;;;;4.15;100.00;100325.72;5452900;26;19940;-86
2024/04/09 04:03:23;;;;;;;;;;;;;;;4.11;100.00;100318.19;5430975;26;19925;-85
2024/04/09 04:05:55;;;;;;;;;;;;;;;4.14;100.00;100325.88;5447593;26;19941;-85
2024/04/09 04:08:28;;;;;;;;;;;;;;;4.13;100.00;100333.00;5405609;26;19928;-85
2024/04/09 04:10:54;;;;;;;;;;;;;;;4.18;100.00;100330.75;5392920;26;19928;-86
2024/04/09 04:13:22;;;;;;;;;;;;;;;4.13;100.00;100334.84;5422225;26;19973;-86
2024/04/09 04:15:55;;;;;;;;;;;;;;;4.10;100.00;100335.97;5392749;26;19928;-86
2024/04/09 04:18:21;;;;;;;;;;;;;;;4.11;100.00;100334.13;5452363;26;20359;-86
2024/04/09 04:20:51;;;;;;;;;;;;;;;4.34;100.00;100332.81;5392496;26;19974;-85
2024/04/09 04:23:16;;;;;;;;;;;;;;;4.51;100.00;100347.16;5392612;26;19935;-86
2024/04/09 04:25:42;;;;;;;;;;;;;;;4.58;100.00;100356.25;5392517;26;19928;-86
2024/04/09 04:28:08;;;;;;;;;;;;;;;4.63;100.00;100361.09;5392312;26;19936;-86
2024/04/09 04:30:34;;;;;;;;;;;;;;;4.62;100.00;100362.09;5451864;26;19929;-86
2024/04/09 04:33:04;;;;;;;;;;;;;;;4.47;100.00;100364.41;5421762;26;20263;-86
2024/04/09 04:35:29;;;;;;;;;;;;;;;4.44;100.00;100361.19;5425649;26;19928;-87
2024/04/09 04:37:55;;;;;;;;;;;;;;;4.36;100.00;100378.72;5425758;26;19929;-86
2024/04/09 04:40:20;;;;;;;;;;;;;;;4.27;100.00;100374.28;5395703;26;20333;-87
2024/04/09 04:42:46;;;;;;;;;;;;;;;4.25;100.00;100378.91;5396045;26;19935;-86
2024/04/09 04:45:11;;;;;;;;;;;;;;;4.23;100.00;100372.88;5425390;26;19928;-87
2024/04/09 04:47:37;;;;;;;;;;;;;;;4.42;100.00;100369.34;5395566;26;19956;-86
2024/04/09 04:50:03;;;;;;;;;;;;;;;4.57;100.00;100378.50;5425237;26;20262;-85
2024/04/09 04:52:28;;;;;;;;;;;;;;;4.57;100.00;100383.84;5455283;26;19997;-86
2024/04/09 04:54:54;;;;;;;;;;;;;;;4.50;100.00;100392.56;5425246;26;19928;-86
2024/04/09 04:57:22;;;;;;;;;;;;;;;4.47;100.00;100387.53;5455064;26;20363;-86
2024/04/09 04:59:48;;;;;;;;;;;;;;;4.57;100.00;100383.00;5425912;26;19939;-86
2024/04/09 05:02:14;;;;;;;;;;;;;;;4.60;100.00;100382.72;5425799;26;20344;-85
2024/04/09 05:04:39;;;;;;;;;;;;;;;4.66;100.00;100384.81;5424998;26;19936;-85
2024/04/09 05:07:06;;;;;;;;;;;;;;;4.67;100.00;100385.63;5395355;26;19935;-86
2024/04/09 05:09:33;;;;;;;;;;;;;;;4.80;100.00;100394.13;5425030;26;19939;-86
2024/04/09 05:11:59;;;;;;;;;;;;;;;4.79;100.00;100395.09;5425531;26;20386;-86
2024/04/09 05:14:25;;;;;;;;;;;;;;;4.80;100.00;100392.28;5454874;26;19928;-86
2024/04/09 05:16:50;;;;;;;;;;;;;;;4.81;100.00;100396.63;5454946;26;20375;-85
2024/04/09 05:19:16;;;;;;;;;;;;;;;4.83;100.00;100402.66;5424679;26;19929;-85
2024/04/09 05:21:41;;;;;;;;;;;;;;;4.77;100.00;100408.59;5395068;26;19936;-86
2024/04/09 05:24:08;;;;;;;;;;;;;;;4.83;100.00;100413.31;5395051;26;19939;-85
2024/04/09 05:26:33;;;;;;;;;;;;;;;4.82;100.00;100422.31;5454616;26;19968;-85
2024/04/09 05:28:59;;;;;;;;;;;;;;;4.89;100.00;100414.53;5424803;26;19935;-86
2024/04/09 05:31:25;;;;;;;;;;;;;;;4.96;100.00;100418.31;5454581;26;19932;-86
2024/04/09 05:33:50;;;;;;;;;;;;;;;4.97;100.00;100419.97;5424911;26;19940;-86
2024/04/09 05:36:16;;;;;;;;;;;;;;;5.04;100.00;100415.72;5394785;26;19928;-86
2024/04/09 05:38:41;;;;;;;;;;;;;;;4.99;100.00;100422.50;5395126;26;19937;-86
2024/04/09 05:41:10;;;;;;;;;;;;;;;5.08;100.00;100421.63;5424663;26;19937;-85
2024/04/09 05:43:36;;;;;;;;;;;;;;;5.03;100.00;100427.38;5395266;26;19939;-86
2024/04/09 05:46:01;;;;;;;;;;;;;;;5.03;100.00;100424.72;5424120;26;19998;-85
2024/04/09 05:48:27;;;;;;;;;;;;;;;5.02;100.00;100433.69;5424551;26;19936;-86
2024/04/09 05:50:53;;;;;;;;;;;;;;;5.19;100.00;100439.25;5424022;26;19940;-86
2024/04/09 05:53:19;;;;;;;;;;;;;;;5.25;100.00;100452.78;5395859;26;20029;-86
2024/04/09 05:55:54;;;;;;;;;;;;;;;5.20;100.00;100459.56;5394658;26;19978;-86
2024/04/09 05:58:20;;;;;;;;;;;;;;;5.18;100.00;100457.03;5424770;26;19936;-85
2024/04/09 06:00:46;;;;;;;;;;;;;;;5.17;100.00;100462.53;5424254;26;19997;-86
2024/04/09 06:03:13;;;;;;;;;;;;;;;5.03;100.00;100461.19;5424119;26;19932;-86
2024/04/09 06:05:41;;;;;;;;;;;;;;;4.94;100.00;100467.41;5423988;26;19940;-86
2024/04/09 06:08:07;;;;;;;;;;;;;;;5.09;100.00;100462.44;5454170;26;19928;-87
2024/04/09 06:10:32;;;;;;;;;;;;;;;5.09;100.00;100471.25;5454124;26;19929;-86
2024/04/09 06:12:58;;;;;;;;;;;;;;;5.02;100.00;100467.50;5424059;26;19936;-86
2024/04/09 06:15:23;;;;;;;;;;;;;;;4.93;100.00;100466.56;5424010;26;20262;-86
2024/04/09 06:17:49;;;;;;;;;;;;;;;4.90;100.00;100476.69;5424040;26;19965;-86
2024/04/09 06:20:15;;;;;;;;;;;;;;;4.88;100.00;100479.47;5394459;26;19939;-86
2024/04/09 06:22:40;;;;;;;;;;;;;;;4.82;100.00;100478.25;5453745;26;20359;-86
2024/04/09 06:25:09;;;;;;;;;;;;;;;4.93;100.00;100482.53;5453787;26;19997;-85
2024/04/09 06:27:34;;;;;;;;;;;;;;;5.18;100.00;100497.00;5425119;26;19940;-85
2024/04/09 06:30:00;;;;;;;;;;;;;;;5.50;100.00;100499.25;5435047;26;19927;-85
2024/04/09 06:32:27;;;;;;;;;;;;;;;5.70;100.00;100497.28;5478869;26;19936;-85
2024/04/09 06:34:52;;;;;;;;;;;;;;;5.75;100.00;100496.00;5464113;26;19952;-85
2024/04/09 06:37:18;;;;;;;;;;;;;;;5.92;100.00;100506.69;5394213;26;19928;-85
2024/04/09 06:39:43;;;;;;;;;;;;;;;6.05;100.00;100514.34;5423567;26;19997;-85
2024/04/09 06:42:09;;;;;;;;;;;;;;;6.27;100.00;100515.72;5423513;26;19929;-86
2024/04/09 06:44:34;;;;;;;;;;;;;;;6.74;100.00;100525.25;5394946;26;19929;-86
2024/04/09 06:47:01;;;;;;;;;;;;;;;6.91;100.00;100526.22;5425947;26;19928;-86
2024/04/09 06:49:27;;;;;;;;;;;;;;;6.54;100.00;100533.47;5473721;26;19927;-85
2024/04/09 06:51:52;;;;;;;;;;;;;;;6.22;100.00;100539.38;5430177;26;19928;-86
2024/04/09 06:54:18;;;;;;;;;;;;;;;6.19;100.00;100542.31;5394127;26;19935;-86
2024/04/09 06:56:43;;;;;;;;;;;;;;;6.15;100.00;100549.81;5422526;26;19936;-86
2024/04/09 06:59:09;;;;;;;;;;;;;;;6.54;100.00;100565.53;5422846;26;19929;-86
2024/04/09 07:01:35;;;;;;;;;;;;;;;6.95;100.00;100570.31;5423730;26;19929;-86
2024/04/09 07:04:01;;;;;;;;;;;;;;;7.27;100.00;100567.84;5424726;26;20018;-86
2024/04/09 07:06:26;;;;;;;;;;;;;;;7.59;100.00;100579.69;5426132;26;19928;-86
2024/04/09 07:08:52;;;;;;;;;;;;;;;7.64;100.00;100587.25;5424383;26;19936;-86
2024/04/09 07:11:17;;;;;;;;;;;;;;;7.93;100.00;100579.66;5424329;26;19942;-87
2024/04/09 07:13:43;;;;;;;;;;;;;;;8.24;100.00;100578.22;5454109;26;19943;-86
2024/04/09 07:16:08;;;;;;;;;;;;;;;8.75;100.00;100581.63;5423905;26;19936;-87
2024/04/09 07:18:35;;;;;;;;;;;;;;;9.44;100.00;100592.75;5423835;26;20312;-86
2024/04/09 07:21:01;;;;;;;;;;;;;;;9.93;100.00;100594.41;5423523;26;20267;-85
2024/04/09 07:23:26;;;;;;;;;;;;;;;10.13;100.00;100585.72;5393869;26;19928;-86
2024/04/09 07:25:52;;;;;;;;;;;;;;;10.26;98.78;100586.97;5454048;26;19936;-86
2024/04/09 07:28:20;;;;;;;;;;;;;;;10.78;92.89;100591.66;5425387;26;19935;-85
2024/04/09 07:30:45;;;;;;;;;;;;;;;11.19;87.95;100602.03;5394783;26;19935;-86
2024/04/09 07:33:11;;;;;;;;;;;;;;;11.36;81.89;100600.88;5423431;26;20004;-86
2024/04/09 07:35:37;;;;;;;;;;;;;;;11.45;77.41;100615.91;5393634;26;19928;-86
2024/04/09 07:38:02;;;;;;;;;;;;;;;11.71;77.39;100617.28;5393899;26;19940;-86
2024/04/09 07:40:28;;;;;;;;;;;;;;;11.98;75.34;100617.66;5393766;26;19940;-86
2024/04/09 07:42:53;;;;;;;;;;;;;;;12.16;72.31;100626.19;5393777;26;19936;-86
2024/04/09 07:45:19;;;;;;;;;;;;;;;12.56;71.64;100633.88;5393519;26;19935;-85
2024/04/09 07:47:49;;;;;;;;;;;;;;;13.06;67.05;100635.59;5453723;26;19968;-86
2024/04/09 07:50:15;;;;;;;;;;;;;;;13.50;62.93;100641.78;5394815;26;19928;-86
2024/04/09 07:52:41;;;;;;;;;;;;;;;13.75;60.23;100642.13;5394053;26;20374;-88
2024/04/09 07:55:07;;;;;;;;;;;;;;;13.34;62.15;100642.91;5422984;26;20377;-85
2024/04/09 07:57:36;;;;;;;;;;;;;;;11.44;67.65;100643.84;5453495;26;19928;-86
2024/04/09 08:00:06;;;;;;;;;;;;;;;10.26;73.56;100656.84;5393259;26;19997;-85
2024/04/09 08:02:31;;;;;;;;;;;;;;;9.36;78.36;100658.00;5423438;26;19928;-87
2024/04/09 08:04:57;;;;;;;;;;;;;;;9.04;82.13;100658.88;5393482;26;19935;-86
2024/04/09 08:07:22;;;;;;;;;;;;;;;8.82;84.74;100664.91;5422218;26;19928;-86
2024/04/09 08:09:48;;;;;;;;;;;;;;;9.90;82.45;100665.44;5424909;26;19935;-86
2024/04/09 08:12:13;;;;;;;;;;;;;;;10.93;74.66;100670.56;5396001;26;19963;-86
2024/04/09 08:14:39;;;;;;;;;;;;;;;10.07;74.74;100679.63;5455726;26;19944;-85
2024/04/09 08:17:04;;;;;;;;;;;;;;;8.96;82.94;100681.16;5396106;26;19997;-85
2024/04/09 08:19:30;;;;;;;;;;;;;;;11.19;71.31;100685.47;5425848;26;19997;-85
2024/04/09 08:21:56;;;;;;;;;;;;;;;12.47;66.03;100696.03;5425937;26;19933;-86
2024/04/09 08:24:22;;;;;;;;;;;;;;;13.07;60.90;100699.34;5425597;26;19933;-84
2024/04/09 08:26:48;;;;;;;;;;;;;;;13.34;59.20;100699.63;5425710;26;19936;-86
2024/04/09 08:29:16;;;;;;;;;;;;;;;13.37;55.91;100715.44;5425544;26;19936;-84
2024/04/09 08:31:45;;;;;;;;;;;;;;;13.72;55.88;100707.38;5426111;26;20256;-84
2024/04/09 08:34:11;;;;;;;;;;;;;;;14.07;55.28;100719.84;5455836;26;19928;-84
2024/04/09 08:36:36;;;;;;;;;;;;;;;12.12;60.67;100719.25;5395762;26;19928;-84
2024/04/09 08:39:03;;;;;;;;;;;;;;;13.25;58.09;100727.75;5395992;26;19928;-86
2024/04/09 08:41:29;;;;;;;;;;;;;;;13.91;55.13;100744.50;5425675;26;19928;-85
2024/04/09 08:43:55;;;;;;;;;;;;;;;14.41;54.96;100747.88;5425229;26;19939;-85
2024/04/09 08:46:21;;;;;;;;;;;;;;;14.96;54.26;100745.19;5425155;26;19928;-85
2024/04/09 08:48:46;;;;;;;;;;;;;;;14.92;52.18;100742.06;5425296;26;19939;-86
2024/04/09 08:51:12;;;;;;;;;;;;;;;15.09;51.99;100747.09;5395312;26;19935;-86
2024/04/09 08:53:38;;;;;;;;;;;;;;;12.88;56.24;100748.56;5425315;26;19940;-85
2024/04/09 08:56:04;;;;;;;;;;;;;;;14.27;55.01;100754.28;5425248;26;19928;-84
2024/04/09 08:58:30;;;;;;;;;;;;;;;15.42;51.54;100757.94;5425043;26;19941;-85
2024/04/09 09:00:56;;;;;;;;;;;;;;;14.06;52.80;100764.13;5395795;26;19936;-85
2024/04/09 09:03:21;;;;;;;;;;;;;;;12.42;57.88;100756.94;5425265;26;20277;-86
2024/04/09 09:06:16;;;;;;;;;;;;;;;11.83;62.51;100750.50;5395773;26;19940;-85
2024/04/09 09:08:41;;;;;;;;;;;;;;;11.25;63.91;100743.97;5446910;26;19928;-85
2024/04/09 09:11:07;;;;;;;;;;;;;;;10.84;66.02;100727.28;5408592;26;19997;-82
2024/04/09 09:13:33;;;;;;;;;;;;;;;10.62;66.90;100788.09;5436289;26;19928;-83
2024/04/09 09:15:58;;;;;;;;;;;;;;;9.86;69.76;100791.13;5427640;26;19928;-83
2024/04/09 09:18:24;;;;;;;;;;;;;;;11.79;63.47;100797.69;5425272;26;19935;-84
2024/04/09 09:20:59;;;;;;;;;;;;;;;13.49;57.32;100794.88;5424172;26;19928;-85
2024/04/09 09:23:25;;;;;;;;;;;;;;;14.38;53.09;100807.81;5425154;26;19960;-85
2024/04/09 09:25:52;;;;;;;;;;;;;;;14.70;51.88;100800.91;5395394;26;20294;-85
2024/04/09 09:28:22;;;;;;;;;;;;;;;14.65;50.70;100811.50;5425317;26;19932;-84
2024/04/09 09:30:48;;;;;;;;;;;;;;;14.86;50.46;100815.13;5395438;26;19940;-84
2024/04/09 09:33:19;;;;;;;;;;;;;;;15.05;48.73;100810.81;5395480;26;19997;-85
2024/04/09 09:35:48;;;;;;;;;;;;;;;15.10;47.81;100811.03;5425006;26;19936;-85
2024/04/09 09:38:17;;;;;;;;;;;;;;;15.81;46.72;100811.38;5395570;26;19944;-85
2024/04/09 09:40:48;;;;;;;;;;;;;;;15.90;46.90;100830.97;5425778;26;20243;-85
2024/04/09 09:43:15;;;;;;;;;;;;;;;15.15;48.45;100838.34;5426716;26;19936;-85
2024/04/09 09:45:40;;;;;;;;;;;;;;;15.05;48.97;100827.91;5432878;26;19940;-85
2024/04/09 09:48:06;;;;;;;;;;;;;;;15.25;48.21;100827.13;5439472;26;19933;-84
2024/04/09 09:50:32;;;;;;;;;;;;;;;14.92;48.74;100836.84;5444387;26;20347;-84
2024/04/09 09:52:57;;;;;;;;;;;;;;;14.60;49.80;100845.63;5396051;26;19997;-85
2024/04/09 09:55:23;;;;;;;;;;;;;;;13.92;51.68;100846.19;5394972;26;20359;-84
2024/04/09 09:57:49;;;;;;;;;;;;;;;12.68;55.90;100845.47;5394787;26;19933;-85
2024/04/09 10:00:15;;;;;;;;;;;;;;;13.39;55.28;100854.66;5424112;26;19940;-84
2024/04/09 10:02:42;;;;;;;;;;;;;;;14.12;54.02;100853.63;5424150;26;19991;-84
2024/04/09 10:05:08;;;;;;;;;;;;;;;13.61;51.73;100863.56;5424336;26;20244;-85
2024/04/09 10:07:34;;;;;;;;;;;;;;;14.68;48.99;100859.81;5424642;26;19936;-85
2024/04/09 10:10:00;;;;;;;;;;;;;;;15.14;47.65;100847.53;5424759;26;19935;-85
2024/04/09 10:12:28;;;;;;;;;;;;;;;15.43;47.53;100859.03;5394989;26;19928;-85
2024/04/09 10:14:58;;;;;;;;;;;;;;;15.69;45.83;100856.44;5394592;26;19997;-85
2024/04/09 10:17:42;;;;;;;;;;;;;;;15.97;44.34;100858.09;5424295;26;19998;-85
2024/04/09 10:20:15;;;;;;;;;;;;;;;15.65;43.23;100874.09;5454101;26;19929;-86
2024/04/09 10:22:43;;;;;;;;;;;;;;;15.61;42.98;100846.59;5394597;26;20313;-84
2024/04/09 10:25:14;;;;;;;;;;;;;;;15.59;42.97;100874.94;5394584;26;19960;-84
2024/04/09 10:27:40;;;;;;;;;;;;;;;15.80;42.11;100865.81;5454504;26;19932;-85
2024/04/09 10:30:13;;;;;;;;;;;;;;;15.13;42.75;100867.50;5423872;26;19935;-85
2024/04/09 10:32:38;;;;;;;;;;;;;;;15.18;42.85;100865.84;5394160;26;19960;-84
2024/04/09 10:35:13;;;;;;;;;;;;;;;16.22;43.29;100883.53;5394559;26;19929;-85
2024/04/09 10:37:38;;;;;;;;;;;;;;;17.00;41.58;100882.75;5423853;26;19939;-85
2024/04/09 10:40:04;;;;;;;;;;;;;;;16.07;42.60;100882.09;5453753;26;20359;-85
2024/04/09 10:42:31;;;;;;;;;;;;;;;15.60;44.20;100880.13;5454121;26;19953;-84
2024/04/09 10:44:57;;;;;;;;;;;;;;;16.41;43.51;100878.31;5394490;26;19931;-85
2024/04/09 10:47:22;;;;;;;;;;;;;;;16.58;43.31;100894.97;5394514;26;20346;-85
2024/04/09 10:49:48;;;;;;;;;;;;;;;16.43;42.44;100879.75;5423879;26;19928;-85
2024/04/09 10:52:13;;;;;;;;;;;;;;;15.53;44.18;100884.72;5423330;26;20015;-85
2024/04/09 10:54:39;;;;;;;;;;;;;;;13.76;48.17;100892.38;5453385;26;19928;-87
2024/04/09 10:57:05;;;;;;;;;;;;;;;13.24;51.01;100882.69;5423289;26;19940;-86
2024/04/09 10:59:31;;;;;;;;;;;;;;;14.46;48.66;100896.09;5423669;26;20262;-86
2024/04/09 11:01:57;;;;;;;;;;;;;;;14.57;47.09;100881.19;5423146;26;19928;-85
2024/04/09 11:04:22;;;;;;;;;;;;;;;14.76;43.37;100896.72;5424151;26;19929;-85
2024/04/09 11:06:48;;;;;;;;;;;;;;;15.14;43.06;100885.44;5398914;26;19929;-86
2024/04/09 11:09:16;;;;;;;;;;;;;;;15.23;43.07;100895.03;5445908;26;19921;-85
2024/04/09 11:11:44;;;;;;;;;;;;;;;15.29;43.44;100896.94;5400188;26;19928;-86
2024/04/09 11:14:11;;;;;;;;;;;;;;;15.35;44.09;100893.44;5453230;26;20392;-86
2024/04/09 11:16:44;;;;;;;;;;;;;;;15.89;42.96;100904.41;5423262;26;19965;-85
2024/04/09 11:19:10;;;;;;;;;;;;;;;16.07;42.76;100906.50;5423400;26;19939;-85
2024/04/09 11:21:36;;;;;;;;;;;;;;;16.12;41.31;100888.56;5423233;26;19928;-85
2024/04/09 11:24:01;;;;;;;;;;;;;;;14.01;45.81;100909.88;5423286;26;19997;-84
2024/04/09 11:26:26;;;;;;;;;;;;;;;15.72;44.34;100915.66;5423077;26;19929;-85
2024/04/09 11:28:52;;;;;;;;;;;;;;;17.09;42.26;100907.78;5422876;26;19936;-86
2024/04/09 11:31:21;;;;;;;;;;;;;;;16.72;41.86;100910.16;5423600;26;19928;-85
2024/04/09 11:33:47;;;;;;;;;;;;;;;16.80;41.55;100914.56;5393421;26;20386;-86
2024/04/09 11:36:12;;;;;;;;;;;;;;;17.09;41.17;100915.94;5422875;26;19929;-85
2024/04/09 11:38:38;;;;;;;;;;;;;;;16.88;42.88;100917.91;5422839;26;20083;-85
2024/04/09 11:41:03;;;;;;;;;;;;;;;17.29;41.54;100922.13;5422679;26;19928;-85
2024/04/09 11:43:30;;;;;;;;;;;;;;;16.16;41.59;100916.09;5451875;26;19937;-86
2024/04/09 11:45:59;;;;;;;;;;;;;;;15.04;43.36;100922.91;5422725;26;19953;-85
2024/04/09 11:48:25;;;;;;;;;;;;;;;15.53;40.72;100925.38;5422857;26;19935;-86
2024/04/09 11:50:50;;;;;;;;;;;;;;;15.55;41.90;100920.56;5422736;26;19929;-87
2024/04/09 11:53:16;;;;;;;;;;;;;;;16.23;41.68;100935.94;5455176;26;19941;-84
2024/04/09 11:55:43;;;;;;;;;;;;;;;16.44;39.77;100930.28;5445491;26;20200;-83
2024/04/09 11:58:09;;;;;;;;;;;;;;;16.25;40.58;100945.53;5443750;26;19928;-85
2024/04/09 12:00:35;;;;;;;;;;;;;;;16.33;40.01;100940.94;5393590;26;20419;-85
2024/04/09 12:03:02;;;;;;;;;;;;;;;16.27;39.89;100931.72;5422530;26;19952;-86
2024/04/09 12:05:27;;;;;;;;;;;;;;;16.56;40.51;100940.47;5393403;26;19929;-85
2024/04/09 12:07:53;;;;;;;;;;;;;;;15.78;42.31;100952.78;5392769;26;20374;-85
2024/04/09 12:10:18;;;;;;;;;;;;;;;15.89;41.81;100945.06;5393037;26;19928;-85
2024/04/09 12:12:43;;;;;;;;;;;;;;;16.02;40.68;100942.38;5452770;26;20371;-85
2024/04/09 12:15:09;;;;;;;;;;;;;;;16.09;42.69;100970.34;5452731;26;19928;-86
2024/04/09 12:17:34;;;;;;;;;;;;;;;15.98;42.90;100962.81;5452593;26;20325;-85
2024/04/09 12:20:00;;;;;;;;;;;;;;;15.62;43.83;100969.38;5422461;26;20428;-84
2024/04/09 12:22:26;;;;;;;;;;;;;;;15.60;44.52;100971.47;5422464;26;19932;-85
2024/04/09 12:24:51;;;;;;;;;;;;;;;15.80;43.89;100961.53;5392735;26;19928;-86
2024/04/09 12:27:17;;;;;;;;;;;;;;;15.77;43.36;100966.53;5423112;26;19997;-85
2024/04/09 12:29:43;;;;;;;;;;;;;;;16.00;43.80;100983.25;5422405;26;20006;-85
2024/04/09 12:32:10;;;;;;;;;;;;;;;15.87;43.88;100976.97;5392411;26;19935;-84
2024/04/09 12:34:35;;;;;;;;;;;;;;;15.87;44.57;100977.81;5452076;26;19928;-83